Flight Track Log - Related Links

Times and Time Zones

All times are in EDT time to prevent confusion due to time zone crossing. See the AAY956 flight status page for this flight to view local times or setup timezone preferences in your user account.

Time Position Orientation Groundspeed Altitude Reporting Facility
EDT Latitude Longitude Course Direction KTS MPH feet Rate Location/Type
Mon 03:38:24 PM 26.8869 -81.9928 74° East 165 190 1,600  Level Miami Center
Mon 03:39:26 PM 26.9014 -81.9361 74° East 227 261 3,100 1,452 Climbing Miami Center
Mon 03:40:28 PM 26.9811 -81.9361 360° North 274 315 4,600 1,935 Climbing Miami Center
Mon 03:41:30 PM 27.0522 -81.9425 355° North 278 320 7,100 2,565 Climbing Miami Center
Mon 03:42:32 PM 27.1319 -81.9472 357° North 284 327 9,900 2,081 Climbing Miami Center
Mon 03:43:34 PM 27.2186 -81.9547 356° North 307 353 11,400 1,790 Climbing Miami Center
Mon 03:44:36 PM 27.3456 -81.9639 356° North 377 434 13,600 2,129 Climbing Miami Center
Mon 03:45:38 PM 27.4594 -81.9728 356° North 407 468 15,800 2,081 Climbing Miami Center
Mon 03:46:40 PM 27.5767 -81.9817 356° North 421 484 17,900 2,758 Climbing Miami Center
Mon 03:47:42 PM 27.7044 -81.9917 356° North 425 489 21,500 2,468 Climbing Miami Center
Mon 03:48:44 PM 27.8158 -81.9967 358° North 398 458 23,000 1,306 Climbing Miami Center
Mon 03:49:46 PM 27.9197 -82.0061 355° North 407 468 24,200 1,452 Climbing Miami Center
Mon 03:50:48 PM 28.0297 -82.0489 341° North 417 480 26,000 1,645 Climbing Miami Center
Mon 03:51:50 PM 28.1608 -82.1133 337° Northwest 424 488 27,600 1,065 Climbing Miami Center
Mon 03:52:52 PM 28.2764 -82.1569 342° North 433 498 28,200 829 Climbing Miami Center
Mon 03:53:53 PM 28.4047 -82.2078 341° North 452 520 29,300 1,268 Climbing Miami Center
Mon 03:54:55 PM 28.5242 -82.2547 341° North 454 522 30,800 1,258 Climbing Miami Center
Mon 03:55:57 PM 28.6428 -82.3006 341° North 453 521 31,900 581 Climbing Miami Center
Mon 03:56:59 PM 28.7578 -82.3447 341° North 453 521 32,000 48 Climbing Miami Center
Mon 03:58:01 PM 28.8736 -82.3911 341° North 445 512 32,000  Level Miami Center
Mon 03:59:03 PM 29.0122 -82.4456 341° North 440 506 32,000  Level Miami Center
Mon 04:00:05 PM 29.1286 -82.4914 341° North 441 507 32,000  Level Miami Center
Mon 04:01:07 PM 29.2467 -82.5378 341° North 446 513 32,000 -48 Level Miami Center
Mon 04:02:09 PM 29.3647 -82.5842 341° North 446 513 31,900  Descending Miami Center
Mon 04:03:11 PM 29.4872 -82.6072 351° North 453 521 32,000 286 Climbing Miami Center
Mon 04:04:15 PM 29.6356 -82.5964 North 445 512 32,500 435 Climbing Jacksonville Center
Mon 04:05:15 PM 29.7608 -82.5886 North 445 512 32,900 250 Climbing Jacksonville Center
Mon 04:06:15 PM 29.8861 -82.5811 North 445 512 33,000 50 Climbing Jacksonville Center
Mon 04:07:15 PM 30.0136 -82.5758 North 445 512 33,000 -50 Level Jacksonville Center
Mon 04:08:15 PM 30.1261 -82.5731 North 445 512 32,900  Descending Jacksonville Center
Mon 04:09:15 PM 30.2494 -82.5681 North 440 506 33,000 50 Climbing Jacksonville Center
Mon 04:10:15 PM 30.3850 -82.5531 North 440 506 33,000  Level Jacksonville Center
Mon 04:11:15 PM 30.5125 -82.5358 North 440 506 33,000 -50 Level Jacksonville Center
Mon 04:12:15 PM 30.6375 -82.5208 North 446 513 32,900  Descending Jacksonville Center
Mon 04:13:15 PM 30.7608 -82.4889 13° North 446 513 33,000 50 Climbing Jacksonville Center
Mon 04:14:15 PM 30.8817 -82.4375 20° North 446 513 33,000 -50 Level Jacksonville Center
Mon 04:15:15 PM 31.0067 -82.3883 19° North 458 527 32,900  Descending Jacksonville Center
Mon 04:16:15 PM 31.1256 -82.3417 19° North 458 527 33,000 50 Climbing Jacksonville Center
Mon 04:17:15 PM 31.2486 -82.2947 18° North 458 527 33,000  Level Jacksonville Center
Mon 04:18:15 PM 31.3694 -82.2453 19° North 458 527 33,000 -50 Level Jacksonville Center
Mon 04:19:15 PM 31.4903 -82.1983 18° North 457 526 32,900  Descending Jacksonville Center
Mon 04:20:15 PM 31.6111 -82.1508 19° North 449 517 33,000 50 Climbing Jacksonville Center
Mon 04:21:15 PM 31.7214 -82.1086 18° North 454 522 33,000  Level Jacksonville Center
Mon 04:22:15 PM 31.8528 -82.0536 20° North 454 522 33,000  Level Jacksonville Center
Mon 04:23:15 PM 31.9756 -82.0036 19° North 454 522 33,000  Level Jacksonville Center
Mon 04:24:15 PM 32.0839 -81.9608 18° North 459 528 33,000  Level Jacksonville Center
Mon 04:25:15 PM 32.2169 -81.9056 19° North 459 528 33,000  Level Jacksonville Center
Mon 04:26:15 PM 32.3378 -81.8575 19° North 449 517 33,000  Level Jacksonville Center
Mon 04:27:15 PM 32.4503 -81.8314 11° North 443 510 33,000  Level Jacksonville Center
Mon 04:28:15 PM 32.5856 -81.7978 12° North 459 528 33,000  Level Jacksonville Center
Mon 04:29:15 PM 32.6981 -81.7694 12° North 459 528 33,000  Level Jacksonville Center
Mon 04:30:15 PM 32.8211 -81.7431 10° North 452 520 33,000  Level Jacksonville Center
Mon 04:31:15 PM 32.9439 -81.7119 12° North 447 514 33,000  Level Jacksonville Center
Mon 04:32:15 PM 33.0667 -81.6856 10° North 447 514 33,000  Level Jacksonville Center
Mon 04:33:15 PM 33.1939 -81.6589 10° North 453 521 33,000  Level Jacksonville Center
Mon 04:34:15 PM 33.3167 -81.6275 12° North 453 521 33,000  Level Jacksonville Center
Mon 04:35:15 PM 33.4436 -81.6006 10° North 453 521 33,000  Level Jacksonville Center
Mon 04:36:15 PM 33.5667 -81.5714 11° North 453 521 33,000  Level Jacksonville Center
Mon 04:37:15 PM 33.6936 -81.5419 11° North 453 521 33,000  Level Jacksonville Center
Mon 04:38:15 PM 33.8164 -81.5128 11° North 448 516 33,000  Level Jacksonville Center
Mon 04:39:15 PM 33.9536 -81.4806 11° North 455 524 33,000  Level Jacksonville Center
Mon 04:41:18 PM 34.2131 -81.4189 11° North 450 518 33,000  Level Atlanta Center
Mon 04:42:18 PM 34.3356 -81.3897 11° North 450 518 33,000  Level Atlanta Center
Mon 04:43:18 PM 34.4497 -81.3636 11° North 456 525 33,000  Level Atlanta Center
Mon 04:44:18 PM 34.5700 -81.3344 11° North 449 517 33,000  Level Atlanta Center
Mon 04:45:18 PM 34.7072 -81.3022 11° North 449 517 33,000  Level Atlanta Center
Mon 04:46:18 PM 34.8317 -81.2731 11° North 449 517 33,000  Level Atlanta Center
Mon 04:47:18 PM 34.9542 -81.2461 10° North 449 517 33,000  Level Atlanta Center
Mon 04:48:18 PM 35.0744 -81.2142 12° North 444 511 33,000  Level Atlanta Center
Mon 04:49:18 PM 35.1989 -81.1869 10° North 444 511 33,000  Level Atlanta Center
Mon 04:50:18 PM 35.3192 -81.1522 13° North 449 517 33,000  Level Atlanta Center
Mon 04:51:18 PM 35.4436 -81.1200 12° North 444 511 33,000  Level Atlanta Center
Mon 04:52:18 PM 35.5681 -81.0847 13° North 449 517 33,000  Level Atlanta Center
Mon 04:53:18 PM 35.6986 -81.0544 11° North 462 532 33,000  Level Atlanta Center
Mon 04:54:18 PM 35.8086 -81.0300 10° North 462 532 33,000  Level Atlanta Center
Mon 04:55:18 PM 35.9331 -80.9997 11° North 462 532 33,000  Level Atlanta Center
Mon 04:56:18 PM 36.0553 -80.9694 11° North 457 526 33,000  Level Atlanta Center
Mon 04:57:18 PM 36.1797 -80.9392 11° North 457 526 33,000  Level Atlanta Center
Mon 04:58:18 PM 36.3042 -80.9086 11° North 457 526 33,000  Level Atlanta Center
Mon 04:59:18 PM 36.4283 -80.8778 11° North 457 526 33,000  Level Atlanta Center
Mon 05:00:18 PM 36.5528 -80.8444 12° North 452 520 33,000  Level Atlanta Center
Mon 05:01:18 PM 36.6769 -80.8136 11° North 447 514 33,000  Level Atlanta Center
Mon 05:03:28 PM 36.9461 -80.7508 11° North 435 501 33,000  Level Washington Center
Mon 05:04:29 PM 37.0708 -80.7175 12° North 458 527 33,000  Level Washington Center
Mon 05:05:27 PM 37.1933 -80.6814 13° North 453 521 33,000  Level Washington Center
Mon 05:06:28 PM 37.3161 -80.6400 15° North 453 521 33,000  Level Washington Center
Mon 05:07:29 PM 37.4386 -80.6008 14° North 453 521 33,000  Level Washington Center
Mon 05:08:30 PM 37.5636 -80.5567 16° North 453 521 33,000  Level Washington Center
Mon 05:09:27 PM 37.6883 -80.5150 15° North 458 527 33,000  Level Washington Center
Mon 05:10:28 PM 37.8111 -80.4731 15° North 458 527 33,000  Level Washington Center
Mon 05:11:30 PM 37.9358 -80.4339 14° North 458 527 33,000  Level Washington Center
Mon 05:12:27 PM 38.0628 -80.3894 15° North 463 533 33,000  Level Washington Center
Mon 05:13:28 PM 38.1853 -80.3469 15° North 458 527 33,000  Level Washington Center
Mon 05:14:29 PM 38.3122 -80.3022 15° North 463 533 33,000  Level Washington Center
Mon 05:15:30 PM 38.4369 -80.2597 15° North 463 533 33,000  Level Washington Center
Mon 05:16:27 PM 38.5639 -80.2144 16° North 463 533 33,000  Level Washington Center
Mon 05:18:59 PM 38.8772 -80.0992 16° North 475 547 33,000  Level Cleveland Center
Mon 05:20:01 PM 39.0067 -80.0869 North 468 539 33,000  Level Cleveland Center
Mon 05:21:03 PM 39.1339 -80.0989 356° North 460 529 33,000  Level Cleveland Center
Mon 05:22:05 PM 39.2614 -80.1069 357° North 460 529 33,000  Level Cleveland Center
Mon 05:23:07 PM 39.4172 -80.0725 10° North 473 544 33,000  Level Cleveland Center
Mon 05:24:09 PM 39.5475 -80.0394 11° North 475 547 33,000  Level Cleveland Center
Mon 05:25:11 PM 39.6794 -80.0067 11° North 484 557 33,000  Level Cleveland Center
Mon 05:26:13 PM 39.8114 -79.9728 11° North 485 558 33,000  Level Cleveland Center
Mon 05:27:15 PM 39.9453 -79.9394 11° North 486 559 33,000  Level Cleveland Center
Mon 05:28:17 PM 40.1047 -79.9000 11° North 489 563 33,000  Level Cleveland Center
Mon 05:29:19 PM 40.2350 -79.8672 11° North 488 562 33,000  Level Cleveland Center
Mon 05:30:21 PM 40.3631 -79.8350 11° North 480 552 33,000 -145 Level Cleveland Center
Mon 05:31:23 PM 40.4908 -79.8031 11° North 476 548 32,700 -629 Descending Cleveland Center
Mon 05:32:25 PM 40.6189 -79.7714 11° North 476 548 31,700 -968 Descending Cleveland Center
Mon 05:33:27 PM 40.7717 -79.7306 11° North 472 543 30,700 -968 Descending Cleveland Center
Mon 05:34:29 PM 40.8992 -79.6975 11° North 471 542 29,700 -919 Descending Cleveland Center
Mon 05:35:31 PM 41.0286 -79.6636 11° North 472 543 28,800 -912 Descending Cleveland Center
Mon 05:36:34 PM 41.1586 -79.6289 11° North 475 547 27,800 -960 Descending Cleveland Center
Mon 05:37:36 PM 41.2886 -79.5936 12° North 476 548 26,800 -1,403 Descending Cleveland Center
Mon 05:38:38 PM 41.4394 -79.5544 11° North 481 554 24,900 -1,355 Descending Cleveland Center
Mon 05:39:40 PM 41.5633 -79.5217 11° North 477 549 24,000 -484 Descending Cleveland Center
Mon 05:40:42 PM 41.7128 -79.4814 11° North 461 531 23,900 -629 Descending Cleveland Center
Mon 05:41:44 PM 41.8375 -79.4478 11° North 460 529 22,700 -1,452 Descending Cleveland Center
Mon 05:42:46 PM 41.9561 -79.4175 11° North 440 506 20,900 -1,957 Descending Cleveland Center
Mon 05:44:51 PM 42.1933 -79.3528 11° North 435 501 16,600 -2,214 Descending Cleveland Center
Mon 05:45:53 PM 42.3283 -79.3169 11° North 414 476 14,000 -2,371 Descending Cleveland Center
Mon 05:46:55 PM 42.4347 -79.2878 11° North 392 451 11,700 -1,839 Descending Cleveland Center
Mon 05:47:57 PM 42.5406 -79.2500 15° North 366 421 10,200 -1,161 Descending Cleveland Center
Mon 05:48:59 PM 42.6244 -79.2047 22° Northeast 322 371 9,300 -1,248 Descending Cleveland Center
Mon 05:50:02 PM 42.7067 -79.1614 21° North 308 354 7,600 -1,584 Descending Cleveland Center
Mon 05:51:04 PM 42.7831 -79.1069 28° Northeast 302 348 6,000 -1,452 Descending Cleveland Center
Mon 05:52:06 PM 42.8578 -79.0483 30° Northeast 298 343 4,600 -1,306 Descending Cleveland Center
Mon 05:53:08 PM 42.9222 -78.9928 32° Northeast 290 334 3,300 -919 Descending Cleveland Center
Mon 05:54:10 PM 42.9856 -78.9392 32° Northeast 263 303 2,700 -435 Descending Cleveland Center
Mon 05:55:12 PM 43.0294 -78.8842 42° Northeast 215 247 2,400 -336 Descending Cleveland Center
Mon 05:56:15 PM 43.0750 -78.8489 29° Northeast 192 221 2,000 -432 Descending Cleveland Center
Mon 05:57:17 PM 43.1169 -78.8750 336° Northwest 188 216 1,500 -484 Descending Cleveland Center
Mon 05:59:00 PM 43.1000 -78.9333 251° West  Level FlightAware
Mon 06:06:00 PM 43.1076 -78.9458 251° West  Level Estimated

Login

Don't have an account? Register now (free) for customized features, flight alerts, and more!